Frontier Kotobuki — 3EXC5 — position and weather

sailwx.info

Track history (hours):
 
Tides and Currents Weather Stations Pressure Air Temp Water Temp Dewpoint Dewpoint Depression Visibility Wind Speed Wind Dir Waves Ship Positions

Frontier Kotobuki

Last reported at 2017-Jan-18 02:33 UTC. Time now 2017-Jan-22 08:12 UTC.
Position S 33°51' E 152°01'.

Length 290 m; draft 18.2 m.

Type: Cargo ship. MMSI: 355036000.

Date/timePositionNaut miles runAvg speedWind from/ knotsBaromVisibWave heightAir tempDewpointWater temp
2017-Jan-18 02:33S 33°51' E 152°01'1211.6
2017-Jan-18 01:33S 33°40' E 152°06'2611.1
2017-Jan-17 23:13S 33°16' E 152°18'710.7
2017-Jan-17 22:33S 33°10' E 152°21'1110.8
2017-Jan-17 21:33S 32°60' E 152°26'1111.1
2017-Jan-17 20:33S 32°49' E 152°31'1110.9
2017-Jan-17 19:33S 32°39' E 152°35'1111.2
2017-Jan-17 18:33S 32°29' E 152°40'1111.5
2017-Jan-17 17:33S 32°18' E 152°45'1211.6
2017-Jan-17 16:33S 32°07' E 152°49'8513.5
2017-Jan-17 10:14S 30°46' E 153°20'16213.9
2017-Jan-16 22:32S 28°05' E 153°50'1413.6
2017-Jan-16 21:33S 27°52' E 153°51'1313.6
2017-Jan-16 20:34S 27°38' E 153°52'3113.6
2017-Jan-16 18:16S 27°07' E 153°53'1013.0
2017-Jan-16 17:30S 26°57' E 153°52'  
Track history (hours):
 
Tides and Currents Weather Stations Pressure Air Temp Water Temp Dewpoint Dewpoint Depression Visibility Wind Speed Wind Dir Waves Ship Positions

Frontier Kotobuki

Last reported at 2017-Jan-18 02:33 UTC. Time now 2017-Jan-22 08:12 UTC.
Position S 33°51' E 152°01'.

Length 290 m; draft 18.2 m.

Type: Cargo ship. MMSI: 355036000.

Date/timePositionNaut miles runAvg speedWind from/ knotsBaromVisibWave heightAir tempDewpointWater temp
2017-Jan-18 02:33S 33°51' E 152°01'1211.6
2017-Jan-18 01:33S 33°40' E 152°06'2611.1
2017-Jan-17 23:13S 33°16' E 152°18'710.7
2017-Jan-17 22:33S 33°10' E 152°21'1110.8
2017-Jan-17 21:33S 32°60' E 152°26'1111.1
2017-Jan-17 20:33S 32°49' E 152°31'1110.9
2017-Jan-17 19:33S 32°39' E 152°35'1111.2
2017-Jan-17 18:33S 32°29' E 152°40'1111.5
2017-Jan-17 17:33S 32°18' E 152°45'1211.6
2017-Jan-17 16:33S 32°07' E 152°49'8513.5
2017-Jan-17 10:14S 30°46' E 153°20'16213.9
2017-Jan-16 22:32S 28°05' E 153°50'1413.6
2017-Jan-16 21:33S 27°52' E 153°51'1313.6
2017-Jan-16 20:34S 27°38' E 153°52'3113.6
2017-Jan-16 18:16S 27°07' E 153°53'1013.0
2017-Jan-16 17:30S 26°57' E 153°52'  

Dump ship's entire track history